Terminal Aerodrome Forecast
Issued by NWS

Home | Current Version | Previous Version | Text Only | Print | Product List | Glossary On
Versions: 1 2 3 4 5 6 7 8 9 10 11 12 13 14 15 16 17 18 19
000
FTAK31 PANC 042105 AAB
TAFAAQ
TAF AMD
PAAQ 042105Z 0421/0518 14013KT P6SM SCT080 BKN120
     FM042200 14014G22KT P6SM VCSH SCT060 BKN100
     FM050600 12008KT P6SM SCT100 BKN150
     FM051200 02008KT P6SM SCT080 BKN120=

USA.gov is the U.S. government's official web portal to all federal, state and local government web resources and services.